Time;durP1;ratioP1;P1;durP2;ratioP2;P2;SDS_P1;SDS_P2;PMS_P1;PMS_P2;Temp;Humidity;BMP_temperature;BMP_pressure;BME280_temperature;BME280_humidity;BME280_pressure;Samples;Min_cycle;Max_cycle;Signal;HPM_P1;HPM_P2
2023/10/13 00:02:02;;;;;;;16.97;8.47;;;;;;;;;;4996349;28;20198;-82
2023/10/13 00:04:31;;;;;;;28.90;14.90;;;;;;;;;;4991077;28;20246;-82
2023/10/13 00:06:57;;;;;;;18.57;9.93;;;;;;;;;;4998761;28;20186;-82
2023/10/13 00:09:42;;;;;;;16.97;7.93;;;;;;;;;;4995255;28;20197;-82
2023/10/13 00:12:13;;;;;;;14.50;6.83;;;;;;;;;;5013556;28;20211;-82
2023/10/13 00:14:41;;;;;;;8.97;6.00;;;;;;;;;;4994195;28;20286;-83
2023/10/13 00:17:08;;;;;;;10.53;6.53;;;;;;;;;;5015328;28;20205;-82
2023/10/13 00:19:41;;;;;;;11.80;6.77;;;;;;;;;;5015515;28;20187;-82
2023/10/13 00:22:09;;;;;;;10.47;6.23;;;;;;;;;;5011706;28;20210;-82
2023/10/13 00:24:50;;;;;;;11.33;6.33;;;;;;;;;;4994177;28;20218;-82
2023/10/13 00:27:30;;;;;;;11.67;6.80;;;;;;;;;;5014826;28;20183;-82
2023/10/13 00:32:42;;;;;;;15.60;8.57;;;;;;;;;;5016404;28;20231;-82
2023/10/13 00:35:14;;;;;;;14.23;7.40;;;;;;;;;;4974209;28;20205;-82
2023/10/13 00:37:44;;;;;;;17.93;8.70;;;;;;;;;;4988384;28;20194;-82
2023/10/13 00:40:34;;;;;;;18.50;8.97;;;;;;;;;;4993377;28;20175;-82
2023/10/13 00:43:28;;;;;;;16.90;8.30;;;;;;;;;;5011035;28;20202;-82
2023/10/13 00:45:57;;;;;;;12.93;8.60;;;;;;;;;;5014174;28;20204;-82
2023/10/13 00:48:45;;;;;;;17.30;9.60;;;;;;;;;;5009221;28;20682;-82
2023/10/13 00:51:18;;;;;;;14.50;8.20;;;;;;;;;;5011592;28;20225;-82
2023/10/13 00:53:47;;;;;;;12.33;7.97;;;;;;;;;;4996289;28;20186;-83
2023/10/13 00:56:19;;;;;;;16.90;8.97;;;;;;;;;;4986638;28;20188;-82
2023/10/13 00:58:46;;;;;;;11.17;7.53;;;;;;;;;;4986298;28;20188;-82
2023/10/13 01:01:18;;;;;;;15.37;8.87;;;;;;;;;;5000555;28;20214;-83
2023/10/13 01:03:48;;;;;;;14.33;7.60;;;;;;;;;;4979374;28;20679;-82
2023/10/13 01:06:16;;;;;;;17.17;8.40;;;;;;;;;;5012771;28;20202;-82
2023/10/13 01:08:44;;;;;;;13.70;8.53;;;;;;;;;;4982122;28;20183;-82
2023/10/13 01:11:10;;;;;;;12.37;8.27;;;;;;;;;;4994825;28;20257;-83
2023/10/13 01:13:36;;;;;;;14.07;8.20;;;;;;;;;;4995535;28;20198;-83
2023/10/13 01:16:07;;;;;;;13.90;7.93;;;;;;;;;;4992462;28;20190;-82
2023/10/13 01:18:47;;;;;;;11.27;7.83;;;;;;;;;;4994780;28;20249;-82
2023/10/13 01:21:15;;;;;;;12.17;7.67;;;;;;;;;;4994597;28;20217;-82
2023/10/13 01:23:43;;;;;;;12.20;7.67;;;;;;;;;;4995108;28;20211;-82
2023/10/13 01:26:09;;;;;;;13.57;7.90;;;;;;;;;;4995500;28;20647;-82
2023/10/13 01:28:44;;;;;;;14.03;7.93;;;;;;;;;;4999124;28;20190;-82
2023/10/13 01:31:24;;;;;;;15.13;8.77;;;;;;;;;;5006339;28;20206;-83
2023/10/13 01:33:53;;;;;;;17.30;8.50;;;;;;;;;;5006925;28;21896;-82
2023/10/13 01:36:20;;;;;;;18.00;9.87;;;;;;;;;;5017149;28;20186;-82
2023/10/13 01:38:46;;;;;;;17.30;10.67;;;;;;;;;;4998828;28;20225;-85
2023/10/13 01:41:13;;;;;;;16.73;9.83;;;;;;;;;;4999880;28;20688;-82
2023/10/13 01:43:40;;;;;;;22.10;10.47;;;;;;;;;;5000572;28;20222;-82
2023/10/13 01:46:06;;;;;;;21.07;10.63;;;;;;;;;;5018099;28;20191;-82
2023/10/13 01:48:32;;;;;;;17.80;10.53;;;;;;;;;;4999745;28;20325;-82
2023/10/13 01:51:05;;;;;;;15.03;9.23;;;;;;;;;;5000649;28;20471;-83
2023/10/13 01:53:31;;;;;;;22.03;11.27;;;;;;;;;;4983231;28;20195;-83
2023/10/13 01:55:58;;;;;;;27.00;14.10;;;;;;;;;;5002106;28;20201;-82
2023/10/13 01:58:26;;;;;;;23.03;12.07;;;;;;;;;;4996991;28;20226;-83
2023/10/13 02:00:52;;;;;;;23.00;11.90;;;;;;;;;;5010246;28;20344;-82
2023/10/13 02:03:18;;;;;;;17.77;9.90;;;;;;;;;;5000413;28;20195;-82
2023/10/13 02:05:48;;;;;;;23.87;12.53;;;;;;;;;;4998297;28;20265;-82
2023/10/13 02:08:23;;;;;;;20.63;10.87;;;;;;;;;;4995207;28;20187;-82
2023/10/13 02:10:52;;;;;;;17.47;10.00;;;;;;;;;;4993072;28;20191;-82
2023/10/13 02:13:20;;;;;;;19.50;11.07;;;;;;;;;;4998336;28;20194;-82
2023/10/13 02:15:48;;;;;;;18.73;10.13;;;;;;;;;;4998130;28;20179;-83
2023/10/13 02:18:20;;;;;;;23.50;11.90;;;;;;;;;;5011975;28;20278;-82
2023/10/13 02:20:54;;;;;;;20.07;11.50;;;;;;;;;;5016515;28;20198;-82
2023/10/13 02:23:30;;;;;;;16.23;9.67;;;;;;;;;;5007941;28;20276;-82
2023/10/13 02:26:02;;;;;;;14.03;8.10;;;;;;;;;;5014296;28;20178;-82
2023/10/13 02:28:30;;;;;;;15.23;9.23;;;;;;;;;;5001670;28;20187;-82
2023/10/13 02:30:57;;;;;;;21.37;11.73;;;;;;;;;;5014187;28;20225;-83
2023/10/13 02:33:32;;;;;;;15.53;10.03;;;;;;;;;;4994211;28;20202;-84
2023/10/13 02:36:03;;;;;;;16.17;9.20;;;;;;;;;;5006514;28;20236;-82
2023/10/13 02:41:17;;;;;;;12.40;7.60;;;;;;;;;;4976383;28;20241;-82
2023/10/13 02:43:44;;;;;;;16.43;9.73;;;;;;;;;;4992526;28;20268;-82
2023/10/13 02:46:10;;;;;;;13.17;8.77;;;;;;;;;;4983513;28;20191;-82
2023/10/13 02:48:45;;;;;;;11.57;7.00;;;;;;;;;;4992478;28;20179;-83
2023/10/13 02:51:15;;;;;;;13.23;6.83;;;;;;;;;;5009759;28;20211;-82
2023/10/13 02:53:52;;;;;;;18.83;8.93;;;;;;;;;;4990237;28;20199;-83
2023/10/13 02:56:22;;;;;;;13.53;8.47;;;;;;;;;;4996712;28;20182;-83
2023/10/13 02:58:53;;;;;;;15.80;9.20;;;;;;;;;;4979709;28;20202;-82
2023/10/13 03:01:20;;;;;;;19.77;9.10;;;;;;;;;;5010375;28;20202;-82
2023/10/13 03:03:51;;;;;;;13.40;7.30;;;;;;;;;;4995523;28;20207;-82
2023/10/13 03:06:21;;;;;;;13.10;7.67;;;;;;;;;;5012042;28;20206;-83
2023/10/13 03:08:48;;;;;;;16.03;8.23;;;;;;;;;;4980673;28;20575;-82
2023/10/13 03:11:17;;;;;;;11.20;7.30;;;;;;;;;;4974075;28;20214;-82
2023/10/13 03:13:46;;;;;;;10.80;6.73;;;;;;;;;;5001639;28;20195;-83
2023/10/13 03:16:15;;;;;;;10.90;6.93;;;;;;;;;;5017544;28;20186;-82
2023/10/13 03:18:51;;;;;;;12.03;7.37;;;;;;;;;;5014116;28;20857;-82
2023/10/13 03:21:28;;;;;;;10.03;7.10;;;;;;;;;;4988222;28;20229;-82
2023/10/13 03:23:55;;;;;;;12.70;7.60;;;;;;;;;;4992864;28;20198;-82
2023/10/13 03:26:21;;;;;;;10.77;7.33;;;;;;;;;;5012582;28;20171;-82
2023/10/13 03:28:52;;;;;;;15.20;8.20;;;;;;;;;;5012736;28;20246;-82
2023/10/13 03:31:28;;;;;;;19.13;9.03;;;;;;;;;;4979166;28;20285;-82
2023/10/13 03:33:59;;;;;;;19.10;9.10;;;;;;;;;;4995464;28;20326;-82
2023/10/13 03:39:11;;;;;;;11.43;7.23;;;;;;;;;;4987138;28;20698;-82
2023/10/13 03:41:39;;;;;;;13.77;7.37;;;;;;;;;;5014609;28;20269;-84
2023/10/13 03:44:13;;;;;;;10.50;7.10;;;;;;;;;;5008099;28;20218;-82
2023/10/13 03:46:42;;;;;;;13.80;6.90;;;;;;;;;;4993898;28;20183;-83
2023/10/13 03:49:12;;;;;;;11.27;6.93;;;;;;;;;;5016272;28;20655;-82
2023/10/13 03:51:39;;;;;;;10.43;6.50;;;;;;;;;;5003575;28;20217;-82
2023/10/13 03:54:09;;;;;;;10.07;6.47;;;;;;;;;;4997187;28;20195;-83
2023/10/13 03:59:06;;;;;;;11.03;7.03;;;;;;;;;;5007634;28;20187;-82
2023/10/13 04:01:58;;;;;;;9.93;7.17;;;;;;;;;;4991015;28;20214;-82
2023/10/13 04:04:43;;;;;;;9.27;6.23;;;;;;;;;;5004826;28;20211;-82
2023/10/13 04:17:13;;;;;;;12.67;7.00;;;;;;;;;;5010153;28;20303;-83
2023/10/13 04:23:11;;;;;;;10.60;6.30;;;;;;;;;;5005861;28;20202;-82
2023/10/13 04:28:15;;;;;;;11.47;6.40;;;;;;;;;;5008797;28;20249;-83
2023/10/13 04:33:35;;;;;;;10.03;6.20;;;;;;;;;;4994911;28;20217;-82
2023/10/13 04:39:09;;;;;;;11.30;5.97;;;;;;;;;;4998527;28;20188;-83
2023/10/13 04:41:39;;;;;;;11.83;6.30;;;;;;;;;;5016642;28;20249;-83
2023/10/13 04:52:12;;;;;;;12.67;7.27;;;;;;;;;;5000650;28;20579;-82
2023/10/13 04:54:49;;;;;;;15.33;7.57;;;;;;;;;;5016110;28;20733;-83
2023/10/13 06:29:53;;;;;;;8.47;5.07;;;;;;;;;;5013113;28;20193;-78
2023/10/13 06:32:20;;;;;;;11.00;4.90;;;;;;;;;;5026384;28;20534;-79
2023/10/13 06:34:47;;;;;;;7.13;4.70;;;;;;;;;;5022456;28;20183;-79
2023/10/13 06:37:23;;;;;;;9.47;5.10;;;;;;;;;;5024556;28;20190;-79
2023/10/13 06:39:50;;;;;;;8.83;5.10;;;;;;;;;;5022532;28;20202;-80
2023/10/13 06:42:16;;;;;;;8.83;4.97;;;;;;;;;;5023123;28;20711;-80
2023/10/13 06:44:46;;;;;;;8.83;4.60;;;;;;;;;;5016980;28;20206;-79
2023/10/13 06:47:15;;;;;;;10.83;5.30;;;;;;;;;;5000475;28;20190;-80
2023/10/13 06:49:43;;;;;;;8.07;4.90;;;;;;;;;;5001597;28;20211;-80
2023/10/13 06:52:12;;;;;;;7.80;4.90;;;;;;;;;;4999248;28;20205;-79
2023/10/13 06:54:39;;;;;;;7.43;4.53;;;;;;;;;;5019158;28;20720;-80
2023/10/13 06:57:14;;;;;;;6.97;4.80;;;;;;;;;;5022119;28;20222;-80
2023/10/13 06:59:40;;;;;;;10.63;4.60;;;;;;;;;;5003205;28;20260;-80
2023/10/13 07:02:09;;;;;;;6.80;4.40;;;;;;;;;;5019347;28;20214;-80
2023/10/13 07:04:39;;;;;;;8.93;4.57;;;;;;;;;;4998874;28;20294;-79
2023/10/13 07:07:10;;;;;;;7.73;4.53;;;;;;;;;;5015798;28;20679;-79
2023/10/13 07:12:03;;;;;;;7.83;4.80;;;;;;;;;;4998531;28;20194;-80
2023/10/13 07:14:33;;;;;;;7.53;4.20;;;;;;;;;;4999395;28;20224;-80
2023/10/13 07:17:04;;;;;;;7.90;4.43;;;;;;;;;;4998259;28;20183;-81
2023/10/13 07:19:31;;;;;;;7.17;4.63;;;;;;;;;;5015679;28;20187;-81
2023/10/13 07:24:43;;;;;;;11.00;4.50;;;;;;;;;;5010231;28;20211;-80
2023/10/13 07:27:09;;;;;;;7.97;4.53;;;;;;;;;;5000139;28;20198;-79
2023/10/13 07:29:35;;;;;;;9.10;4.20;;;;;;;;;;5000514;28;20186;-82
2023/10/13 07:32:12;;;;;;;7.97;4.50;;;;;;;;;;5003377;28;20203;-79
2023/10/13 07:34:39;;;;;;;9.90;4.93;;;;;;;;;;5009732;28;20669;-78
2023/10/13 07:37:12;;;;;;;9.93;4.70;;;;;;;;;;5021651;28;20573;-80
2023/10/13 07:39:40;;;;;;;7.80;4.50;;;;;;;;;;5023558;28;20182;-80
2023/10/13 07:42:19;;;;;;;6.30;4.33;;;;;;;;;;5018831;28;20211;-80
2023/10/13 07:44:45;;;;;;;8.27;4.50;;;;;;;;;;5016336;28;20207;-80
2023/10/13 07:47:14;;;;;;;8.97;4.53;;;;;;;;;;5018826;28;20824;-80
2023/10/13 07:49:40;;;;;;;11.00;4.60;;;;;;;;;;4984339;28;20179;-81
2023/10/13 07:54:56;;;;;;;7.80;4.33;;;;;;;;;;5018627;28;20178;-80
2023/10/13 07:57:29;;;;;;;8.10;4.27;;;;;;;;;;5021666;28;20178;-80
2023/10/13 08:00:08;;;;;;;10.70;4.70;;;;;;;;;;5018830;28;20190;-80
2023/10/13 08:02:51;;;;;;;5.57;4.23;;;;;;;;;;5019018;28;20691;-80
2023/10/13 08:05:39;;;;;;;10.47;4.50;;;;;;;;;;5018382;28;20210;-80
2023/10/13 08:08:14;;;;;;;7.77;4.33;;;;;;;;;;5017350;28;20294;-80
2023/10/13 08:10:45;;;;;;;8.97;4.40;;;;;;;;;;5003685;28;20190;-80
2023/10/13 08:13:12;;;;;;;7.53;4.50;;;;;;;;;;5018211;28;20194;-80
2023/10/13 08:15:48;;;;;;;7.20;4.57;;;;;;;;;;4986597;28;20191;-81
2023/10/13 08:18:30;;;;;;;9.33;4.53;;;;;;;;;;5018362;28;20571;-80
2023/10/13 08:21:05;;;;;;;6.90;4.60;;;;;;;;;;5019542;28;20585;-80
2023/10/13 08:26:29;;;;;;;8.50;4.73;;;;;;;;;;5027199;28;20218;-80
2023/10/13 08:31:49;;;;;;;9.00;4.60;;;;;;;;;;5002313;28;20218;-80
2023/10/13 08:34:23;;;;;;;9.70;5.43;;;;;;;;;;5021978;28;20187;-80
2023/10/13 08:36:49;;;;;;;7.23;4.57;;;;;;;;;;5022794;28;20643;-80
2023/10/13 08:39:58;;;;;;;8.23;4.50;;;;;;;;;;5005301;28;20179;-80
2023/10/13 08:42:15;;;;;;;8.90;4.63;;;;;;;;;;5022765;28;20356;-80
2023/10/13 08:44:52;;;;;;;12.10;4.73;;;;;;;;;;5001913;28;20662;-80
2023/10/13 08:47:20;;;;;;;8.00;4.40;;;;;;;;;;5004650;28;20190;-80
2023/10/13 08:49:50;;;;;;;10.63;5.03;;;;;;;;;;5001788;28;20179;-81
2023/10/13 08:55:13;;;;;;;10.70;4.47;;;;;;;;;;5024510;28;20269;-80
2023/10/13 08:57:40;;;;;;;6.20;4.30;;;;;;;;;;5022179;28;20270;-80
2023/10/13 09:00:55;;;;;;;6.93;4.30;;;;;;;;;;5016761;28;20199;-80
2023/10/13 09:03:29;;;;;;;8.67;4.23;;;;;;;;;;5003320;28;20282;-80
2023/10/13 09:06:00;;;;;;;7.53;4.53;;;;;;;;;;5021459;28;20269;-80
2023/10/13 09:08:58;;;;;;;5.90;4.07;;;;;;;;;;5020222;28;20206;-80
2023/10/13 09:11:26;;;;;;;10.03;3.83;;;;;;;;;;5007354;28;20210;-81
2023/10/13 09:13:52;;;;;;;5.30;3.97;;;;;;;;;;5020305;28;20191;-79
2023/10/13 09:16:51;;;;;;;5.47;4.20;;;;;;;;;;4992643;28;20194;-80
2023/10/13 09:19:11;;;;;;;9.10;4.10;;;;;;;;;;5014945;28;20198;-80
2023/10/13 09:26:49;;;;;;;9.20;4.10;;;;;;;;;;5018549;28;20182;-80
2023/10/13 09:29:18;;;;;;;11.30;4.83;;;;;;;;;;5018589;28;20271;-80
2023/10/13 09:31:45;;;;;;;7.53;4.03;;;;;;;;;;5018028;28;20742;-80
2023/10/13 09:34:11;;;;;;;7.70;4.43;;;;;;;;;;5016698;28;20567;-80
2023/10/13 09:36:37;;;;;;;7.60;4.40;;;;;;;;;;5021256;28;20222;-80
2023/10/13 09:39:25;;;;;;;9.93;4.37;;;;;;;;;;4988051;28;20190;-80
2023/10/13 09:41:53;;;;;;;7.00;4.13;;;;;;;;;;5011348;28;20202;-80
2023/10/13 09:44:21;;;;;;;6.33;4.17;;;;;;;;;;5014486;28;20548;-80
2023/10/13 09:46:49;;;;;;;10.30;4.60;;;;;;;;;;5021218;28;20708;-80
2023/10/13 09:49:33;;;;;;;8.30;4.00;;;;;;;;;;5019864;28;20720;-80
2023/10/13 09:52:01;;;;;;;10.27;4.30;;;;;;;;;;5023391;28;20479;-80
2023/10/13 09:54:41;;;;;;;7.90;3.97;;;;;;;;;;5020261;28;20180;-80
2023/10/13 09:57:16;;;;;;;9.40;4.20;;;;;;;;;;5017807;28;20214;-80
2023/10/13 09:59:53;;;;;;;7.03;4.40;;;;;;;;;;5019648;28;20215;-80
2023/10/13 10:02:25;;;;;;;7.13;4.20;;;;;;;;;;5018439;28;20219;-80
2023/10/13 10:04:52;;;;;;;7.07;4.03;;;;;;;;;;5021871;28;20305;-80
2023/10/13 10:07:28;;;;;;;8.30;4.03;;;;;;;;;;5019089;28;20191;-80
2023/10/13 10:09:58;;;;;;;10.33;4.10;;;;;;;;;;5015033;28;20198;-80
2023/10/13 10:12:25;;;;;;;10.53;4.27;;;;;;;;;;5019549;28;20210;-80
2023/10/13 10:14:54;;;;;;;8.40;4.00;;;;;;;;;;5005613;28;20190;-80
2023/10/13 10:17:21;;;;;;;6.73;3.87;;;;;;;;;;5023540;28;20183;-80
2023/10/13 10:19:55;;;;;;;11.73;4.63;;;;;;;;;;5002855;28;20220;-78
2023/10/13 10:22:36;;;;;;;6.23;4.10;;;;;;;;;;5018690;28;20657;-80
2023/10/13 10:25:06;;;;;;;8.20;3.80;;;;;;;;;;5016211;28;20203;-81
2023/10/13 10:27:33;;;;;;;6.50;4.10;;;;;;;;;;5022232;28;20230;-80
2023/10/13 10:29:59;;;;;;;12.53;3.80;;;;;;;;;;5023611;28;20270;-80
2023/10/13 10:32:41;;;;;;;8.63;4.20;;;;;;;;;;5021146;28;20211;-80
2023/10/13 10:35:09;;;;;;;6.87;4.10;;;;;;;;;;5019680;28;20274;-81
2023/10/13 10:37:36;;;;;;;9.20;4.30;;;;;;;;;;5022275;28;20175;-80
2023/10/13 10:40:07;;;;;;;6.73;3.93;;;;;;;;;;5002079;28;20192;-81
2023/10/13 10:42:34;;;;;;;8.97;4.17;;;;;;;;;;5021416;28;20215;-80
2023/10/13 10:45:08;;;;;;;5.20;3.90;;;;;;;;;;5020151;28;20215;-81
2023/10/13 10:47:38;;;;;;;8.17;4.40;;;;;;;;;;5021795;28;20188;-81
2023/10/13 10:50:18;;;;;;;11.63;4.90;;;;;;;;;;5020241;28;20733;-81
2023/10/13 10:52:44;;;;;;;10.23;4.63;;;;;;;;;;5017837;28;20197;-81
2023/10/13 10:55:13;;;;;;;9.77;4.50;;;;;;;;;;5002391;28;20285;-80
2023/10/13 10:57:43;;;;;;;11.60;4.87;;;;;;;;;;5019009;28;20210;-82
2023/10/13 11:00:19;;;;;;;12.67;4.00;;;;;;;;;;5018504;28;20179;-80
2023/10/13 11:02:55;;;;;;;6.97;4.17;;;;;;;;;;5017166;28;20214;-80
2023/10/13 11:05:24;;;;;;;8.97;4.33;;;;;;;;;;5021547;28;20212;-81
2023/10/13 11:07:51;;;;;;;9.10;4.33;;;;;;;;;;5014285;28;20187;-81
2023/10/13 11:10:20;;;;;;;10.33;4.80;;;;;;;;;;5025121;28;20685;-81
2023/10/13 11:13:21;;;;;;;9.33;4.83;;;;;;;;;;5024097;28;20202;-81
2023/10/13 11:15:48;;;;;;;9.20;4.30;;;;;;;;;;5011113;28;20709;-82
2023/10/13 11:18:21;;;;;;;10.87;5.00;;;;;;;;;;5013609;28;20186;-83
2023/10/13 11:20:54;;;;;;;10.67;4.27;;;;;;;;;;5014314;28;20214;-81
2023/10/13 11:23:25;;;;;;;5.53;4.03;;;;;;;;;;5017016;28;20179;-80
2023/10/13 11:26:00;;;;;;;10.60;4.77;;;;;;;;;;5021156;28;20241;-81
2023/10/13 11:28:31;;;;;;;7.90;4.20;;;;;;;;;;5019303;28;20287;-80
2023/10/13 11:31:10;;;;;;;10.20;4.67;;;;;;;;;;5006794;28;20387;-80
2023/10/13 11:33:41;;;;;;;9.50;4.40;;;;;;;;;;5009240;28;20178;-81
2023/10/13 11:36:15;;;;;;;7.70;4.00;;;;;;;;;;5011290;28;20187;-80
2023/10/13 11:41:15;;;;;;;7.43;4.10;;;;;;;;;;5011456;28;20228;-80
2023/10/13 11:46:15;;;;;;;6.63;3.97;;;;;;;;;;5025867;28;20187;-81
2023/10/13 11:48:42;;;;;;;8.47;3.90;;;;;;;;;;5022803;28;20189;-81
2023/10/13 11:51:33;;;;;;;9.20;4.57;;;;;;;;;;5013723;28;20203;-80
2023/10/13 11:53:59;;;;;;;5.30;4.07;;;;;;;;;;5014389;28;20194;-80
2023/10/13 11:56:25;;;;;;;6.80;4.47;;;;;;;;;;5015153;28;20211;-80
2023/10/13 11:58:51;;;;;;;7.43;4.50;;;;;;;;;;5009461;28;20222;-80
2023/10/13 12:11:42;;;;;;;6.80;4.33;;;;;;;;;;5006547;28;20200;-80
2023/10/13 12:14:16;;;;;;;8.57;4.23;;;;;;;;;;5009574;28;20228;-80
2023/10/13 12:16:48;;;;;;;8.07;4.17;;;;;;;;;;4992171;28;20189;-81
2023/10/13 12:19:16;;;;;;;7.73;4.33;;;;;;;;;;5002562;28;20192;-80
2023/10/13 12:21:43;;;;;;;8.67;4.40;;;;;;;;;;5010324;28;20208;-80
2023/10/13 12:24:22;;;;;;;7.93;4.10;;;;;;;;;;5004152;28;20303;-80
2023/10/13 12:26:48;;;;;;;14.20;5.27;;;;;;;;;;5006249;28;20189;-80
2023/10/13 12:29:22;;;;;;;11.73;4.63;;;;;;;;;;5013260;28;20215;-80
2023/10/13 12:51:20;;;;;;;7.17;4.37;;;;;;;;;;5007425;28;20565;-80
2023/10/13 12:53:48;;;;;;;8.50;4.50;;;;;;;;;;4988044;28;20207;-80
2023/10/13 12:56:15;;;;;;;7.40;4.37;;;;;;;;;;4994792;28;20191;-80
2023/10/13 12:58:42;;;;;;;8.30;4.43;;;;;;;;;;5012155;28;20231;-80
2023/10/13 13:01:08;;;;;;;6.77;4.40;;;;;;;;;;5012969;28;20748;-80
2023/10/13 13:03:35;;;;;;;10.33;4.50;;;;;;;;;;5011190;28;20267;-80
2023/10/13 13:06:07;;;;;;;6.83;4.60;;;;;;;;;;5010379;28;20188;-80
2023/10/13 13:08:35;;;;;;;7.10;4.50;;;;;;;;;;5005662;28;20195;-80
2023/10/13 13:11:02;;;;;;;6.23;4.27;;;;;;;;;;4980898;28;20193;-80
2023/10/13 13:13:28;;;;;;;10.60;4.67;;;;;;;;;;5001513;28;20710;-80
2023/10/13 13:15:54;;;;;;;7.17;4.20;;;;;;;;;;5004258;28;20192;-80
2023/10/13 13:18:20;;;;;;;8.43;4.17;;;;;;;;;;4989881;28;20549;-81
2023/10/13 13:20:53;;;;;;;6.30;4.40;;;;;;;;;;4974495;28;20648;-80
2023/10/13 13:23:19;;;;;;;5.60;4.17;;;;;;;;;;5001652;28;20329;-80
2023/10/13 13:25:46;;;;;;;8.47;4.70;;;;;;;;;;5000851;28;20222;-80
2023/10/13 13:28:13;;;;;;;7.27;4.33;;;;;;;;;;5004844;28;20271;-80
2023/10/13 13:30:41;;;;;;;7.20;4.10;;;;;;;;;;5007300;28;20186;-80
2023/10/13 13:33:15;;;;;;;8.27;4.00;;;;;;;;;;5001464;28;20545;-81
2023/10/13 13:35:48;;;;;;;9.67;4.60;;;;;;;;;;5003314;28;20244;-81
2023/10/13 13:38:27;;;;;;;8.77;4.20;;;;;;;;;;4996828;28;20651;-81
2023/10/13 13:40:56;;;;;;;7.27;4.33;;;;;;;;;;5000437;28;20182;-81
2023/10/13 13:43:38;;;;;;;8.03;4.20;;;;;;;;;;5003071;28;20273;-80
2023/10/13 13:46:10;;;;;;;9.03;4.30;;;;;;;;;;4997830;28;20186;-80
2023/10/13 13:48:37;;;;;;;8.13;4.40;;;;;;;;;;5017338;28;20245;-81
2023/10/13 13:51:05;;;;;;;9.37;4.60;;;;;;;;;;5000687;28;20195;-81
2023/10/13 13:53:34;;;;;;;6.73;4.50;;;;;;;;;;4999388;28;20192;-81
2023/10/13 13:56:04;;;;;;;7.90;4.50;;;;;;;;;;5002119;28;20191;-81
2023/10/13 13:58:30;;;;;;;6.27;4.20;;;;;;;;;;5010011;28;20182;-81
2023/10/13 14:01:13;;;;;;;6.60;4.17;;;;;;;;;;5021527;28;20195;-81
2023/10/13 14:03:46;;;;;;;7.77;4.30;;;;;;;;;;5008966;28;20817;-82
2023/10/13 14:06:27;;;;;;;9.17;4.27;;;;;;;;;;5011917;28;20188;-81
2023/10/13 14:08:59;;;;;;;8.20;4.57;;;;;;;;;;5012945;28;20544;-81
2023/10/13 14:14:11;;;;;;;10.30;4.50;;;;;;;;;;4991997;28;20194;-81
2023/10/13 14:16:44;;;;;;;7.80;4.20;;;;;;;;;;5013415;28;20227;-81
2023/10/13 14:19:10;;;;;;;7.10;4.30;;;;;;;;;;4994186;28;20195;-81
2023/10/13 14:21:37;;;;;;;7.47;4.20;;;;;;;;;;5008407;28;20311;-81
2023/10/13 14:24:12;;;;;;;8.43;4.53;;;;;;;;;;4991516;28;20276;-81
2023/10/13 14:26:39;;;;;;;6.77;4.30;;;;;;;;;;5013525;28;20204;-81
2023/10/13 14:29:08;;;;;;;8.27;4.07;;;;;;;;;;5012029;28;20190;-80
2023/10/13 14:31:39;;;;;;;8.37;4.27;;;;;;;;;;5013424;28;20225;-80
2023/10/13 14:34:06;;;;;;;6.53;4.07;;;;;;;;;;4995841;28;20204;-81
2023/10/13 14:36:35;;;;;;;7.73;4.07;;;;;;;;;;5017218;28;20196;-80
2023/10/13 14:39:03;;;;;;;8.30;4.10;;;;;;;;;;5008228;28;20272;-82
2023/10/13 14:41:29;;;;;;;7.60;3.90;;;;;;;;;;5007523;28;20207;-80
2023/10/13 14:44:04;;;;;;;8.27;4.40;;;;;;;;;;4984754;28;20215;-85
2023/10/13 14:46:31;;;;;;;7.80;4.17;;;;;;;;;;4968231;28;20700;-81
2023/10/13 14:48:57;;;;;;;10.70;4.07;;;;;;;;;;4988319;28;20184;-80
2023/10/13 14:51:28;;;;;;;10.53;4.30;;;;;;;;;;5001568;28;20199;-80
2023/10/13 14:53:56;;;;;;;5.70;3.97;;;;;;;;;;5008157;28;20187;-80
2023/10/13 14:56:26;;;;;;;7.80;4.13;;;;;;;;;;5007293;28;20180;-81
2023/10/13 14:58:52;;;;;;;6.27;3.73;;;;;;;;;;5006887;28;20572;-81
2023/10/13 15:01:19;;;;;;;8.37;4.47;;;;;;;;;;4991800;28;20207;-80
2023/10/13 15:03:46;;;;;;;9.97;4.00;;;;;;;;;;5015381;28;20182;-80
2023/10/13 15:06:20;;;;;;;6.40;4.00;;;;;;;;;;4992727;28;20215;-80
2023/10/13 15:08:47;;;;;;;5.50;3.90;;;;;;;;;;5010525;28;20261;-80
2023/10/13 15:11:13;;;;;;;6.23;3.87;;;;;;;;;;5010786;28;20218;-80
2023/10/13 15:13:43;;;;;;;6.13;4.00;;;;;;;;;;5004335;28;20170;-81
2023/10/13 15:16:19;;;;;;;5.80;4.17;;;;;;;;;;5001587;28;20258;-80
2023/10/13 15:18:46;;;;;;;8.53;3.90;;;;;;;;;;5013549;28;20246;-81
2023/10/13 15:21:13;;;;;;;13.57;4.27;;;;;;;;;;5015311;28;20266;-80
2023/10/13 15:23:42;;;;;;;8.47;4.30;;;;;;;;;;5013358;28;20179;-80
2023/10/13 15:26:14;;;;;;;9.93;4.40;;;;;;;;;;5009986;28;20286;-80
2023/10/13 15:28:49;;;;;;;6.77;4.13;;;;;;;;;;5010950;28;20184;-79
2023/10/13 15:31:37;;;;;;;10.67;4.30;;;;;;;;;;5008344;28;20233;-80
2023/10/13 15:34:07;;;;;;;6.37;4.23;;;;;;;;;;5013617;28;20683;-79
2023/10/13 15:36:34;;;;;;;10.90;3.80;;;;;;;;;;4998091;28;20210;-79
2023/10/13 15:39:01;;;;;;;8.13;4.00;;;;;;;;;;5013167;28;20191;-79
2023/10/13 15:41:28;;;;;;;10.93;6.17;;;;;;;;;;4995467;28;20207;-79
2023/10/13 15:43:55;;;;;;;10.13;6.40;;;;;;;;;;4990136;28;20422;-79
2023/10/13 15:46:21;;;;;;;7.93;4.47;;;;;;;;;;5008469;28;20195;-80
2023/10/13 15:48:49;;;;;;;7.40;4.47;;;;;;;;;;4992433;28;20711;-81
2023/10/13 15:51:16;;;;;;;7.40;4.10;;;;;;;;;;4994026;28;20234;-80
2023/10/13 15:53:47;;;;;;;10.13;4.60;;;;;;;;;;4998234;28;20270;-80
2023/10/13 15:56:17;;;;;;;8.20;3.97;;;;;;;;;;5005208;28;20265;-81
2023/10/13 15:58:46;;;;;;;6.20;4.10;;;;;;;;;;4984227;28;20198;-81
2023/10/13 16:01:15;;;;;;;10.63;4.27;;;;;;;;;;5010590;28;20211;-80
2023/10/13 16:03:43;;;;;;;13.73;5.70;;;;;;;;;;5002166;28;20187;-80
2023/10/13 16:06:12;;;;;;;12.43;5.40;;;;;;;;;;5008517;28;20182;-80
2023/10/13 16:08:43;;;;;;;9.10;5.50;;;;;;;;;;5002608;28;20180;-80
2023/10/13 16:11:19;;;;;;;9.37;5.17;;;;;;;;;;5009455;28;20225;-80
2023/10/13 16:13:52;;;;;;;9.83;4.63;;;;;;;;;;5000451;28;20682;-80
2023/10/13 16:16:22;;;;;;;7.83;4.67;;;;;;;;;;5001139;28;20206;-80
2023/10/13 16:18:49;;;;;;;10.53;4.40;;;;;;;;;;5009759;28;20176;-81
2023/10/13 16:21:15;;;;;;;10.00;4.20;;;;;;;;;;4997214;28;20220;-80
2023/10/13 16:23:48;;;;;;;6.87;4.20;;;;;;;;;;5018793;28;20178;-82
2023/10/13 16:26:21;;;;;;;6.63;4.00;;;;;;;;;;5013543;28;20192;-80
2023/10/13 16:28:57;;;;;;;7.20;4.00;;;;;;;;;;5017982;28;20190;-80
2023/10/13 16:31:27;;;;;;;7.50;3.87;;;;;;;;;;5015375;28;20198;-80
2023/10/13 16:33:54;;;;;;;6.87;3.70;;;;;;;;;;5022114;28;20183;-81
2023/10/13 16:36:24;;;;;;;7.73;3.87;;;;;;;;;;5017803;28;20712;-80
2023/10/13 16:38:50;;;;;;;11.20;4.23;;;;;;;;;;5017029;28;20266;-80
2023/10/13 16:41:16;;;;;;;8.37;3.97;;;;;;;;;;5017325;28;20203;-81
2023/10/13 16:43:43;;;;;;;11.33;3.77;;;;;;;;;;5021341;28;20607;-82
2023/10/13 16:46:12;;;;;;;9.00;4.27;;;;;;;;;;5017222;28;20764;-78
2023/10/13 16:48:39;;;;;;;6.97;4.10;;;;;;;;;;5008472;28;20187;-78
2023/10/13 16:51:05;;;;;;;10.83;4.73;;;;;;;;;;5006034;28;20206;-78
2023/10/13 16:53:32;;;;;;;8.63;4.23;;;;;;;;;;5013731;28;20208;-78
2023/10/13 16:56:01;;;;;;;9.07;4.13;;;;;;;;;;5011832;28;20620;-79
2023/10/13 16:58:30;;;;;;;6.90;3.97;;;;;;;;;;5006058;28;20200;-78
2023/10/13 17:00:56;;;;;;;8.23;4.37;;;;;;;;;;5013820;28;20243;-78
2023/10/13 17:03:31;;;;;;;6.23;4.00;;;;;;;;;;5016748;28;20657;-79
2023/10/13 17:06:01;;;;;;;11.70;4.40;;;;;;;;;;4999701;28;20211;-79
2023/10/13 17:08:30;;;;;;;9.27;4.03;;;;;;;;;;5011730;28;20316;-79
2023/10/13 17:10:59;;;;;;;7.53;4.17;;;;;;;;;;5016936;28;20240;-78
2023/10/13 17:13:25;;;;;;;7.80;4.10;;;;;;;;;;4990246;28;20536;-78
2023/10/13 17:15:51;;;;;;;7.97;4.70;;;;;;;;;;5008641;28;20306;-78
2023/10/13 17:18:17;;;;;;;8.10;4.00;;;;;;;;;;5006744;28;20537;-77
2023/10/13 17:20:46;;;;;;;8.18;4.43;;;;;;;;;;5007487;28;20511;-77
2023/10/13 17:23:12;;;;;;;6.13;3.50;;;;;;;;;;4992905;28;20213;-77
2023/10/13 17:25:40;;;;;;;6.67;3.80;;;;;;;;;;5009067;28;20286;-77
2023/10/13 17:28:12;;;;;;;9.87;3.87;;;;;;;;;;5007436;28;20187;-77
2023/10/13 17:30:39;;;;;;;5.33;3.87;;;;;;;;;;5012183;28;20720;-78
2023/10/13 17:33:11;;;;;;;7.17;3.43;;;;;;;;;;5010013;28;20215;-78
2023/10/13 17:35:39;;;;;;;4.90;3.60;;;;;;;;;;5009937;28;20192;-77
2023/10/13 17:38:05;;;;;;;8.20;3.57;;;;;;;;;;5013287;28;20214;-77
2023/10/13 17:40:32;;;;;;;6.13;3.23;;;;;;;;;;5010537;28;20487;-77
2023/10/13 17:42:58;;;;;;;5.57;3.50;;;;;;;;;;4999266;28;20440;-77
2023/10/13 17:45:25;;;;;;;5.67;3.23;;;;;;;;;;5012099;28;20712;-77
2023/10/13 17:47:51;;;;;;;7.17;3.00;;;;;;;;;;5010549;28;20186;-77
2023/10/13 17:50:17;;;;;;;7.37;3.10;;;;;;;;;;5013698;28;20660;-78
2023/10/13 17:52:48;;;;;;;7.47;3.17;;;;;;;;;;5008230;28;20209;-77
2023/10/13 17:55:16;;;;;;;10.13;3.60;;;;;;;;;;5013814;28;20673;-77
2023/10/13 17:57:43;;;;;;;8.70;3.10;;;;;;;;;;5011588;28;20556;-77
2023/10/13 18:00:22;;;;;;;4.73;3.20;;;;;;;;;;5016656;28;20187;-81
2023/10/13 18:02:53;;;;;;;7.73;3.30;;;;;;;;;;5000216;28;20225;-82
2023/10/13 18:05:20;;;;;;;7.33;3.17;;;;;;;;;;5021761;28;20225;-81
2023/10/13 18:07:47;;;;;;;8.23;3.27;;;;;;;;;;5000208;28;20715;-77
2023/10/13 18:10:14;;;;;;;5.87;3.03;;;;;;;;;;5013270;28;20196;-79